Latest Weather Observations for Flinders Reef

IDQ60801

Issued at 11:32 pm EST Monday 6 February 2023 (issued every 10 minutes, with the page automatically refreshed every 10 minutes)

About weather observations | Map of weather stations | Latest weather observations for QLD | Other Formats
Station Details ID: 200783 Name: FLINDERS REEF Lat: -17.72 Lon: 148.45 Height: 2.6 m
Data from the previous 72 hours. | See also: Recent months at Flinders Reef
Date/Time
EST
Temp
°C
App
Temp
°C
Dew
Point
°C
Rel
Hum
%
Delta-T
°C
Wind Press
QNH
hPa
Press
MSL
hPa
Rain since
9am
mm
Dir  Spd
km/h
Gust
km/h
Spd
kts
Gust
kts
06/11:30pm 28.9 - - - - ESE 30 35 16 19 1007.5 1007.4 -
06/11:00pm 29.2 - - - - ESE 30 35 16 19 1008.0 1007.9 -
06/10:30pm 29.3 - - - - ESE 35 39 19 21 1008.0 1007.9 -
06/10:00pm 28.9 - - - - ESE 33 37 18 20 1007.9 1007.8 -
06/09:30pm 29.1 - - - - ESE 30 35 16 19 1007.7 1007.6 -
06/09:00pm 29.1 - - - - ESE 32 35 17 19 1007.7 1007.6 -
06/08:30pm 29.0 - - - - ESE 32 35 17 19 1007.5 1007.4 -
06/08:00pm 29.1 - - - - E 33 39 18 21 1007.2 1007.1 -
06/07:30pm 29.1 - - - - E 33 37 18 20 1007.0 1006.9 -
06/07:00pm 29.0 - - - - E 32 37 17 20 1006.8 1006.7 -
06/06:30pm 29.0 - - - - ESE 33 39 18 21 1006.7 1006.6 -
06/06:00pm 29.2 - - - - E 33 39 18 21 1006.7 1006.6 -
06/05:30pm 29.1 - - - - ESE 32 35 17 19 1006.5 1006.4 -
06/05:00pm 29.1 - - - - ESE 33 39 18 21 1006.4 1006.3 -
06/04:30pm 29.0 - - - - ESE 33 39 18 21 1006.2 1006.1 -
06/04:00pm 29.0 - - - - ESE 35 39 19 21 1006.1 1006.0 -
06/03:30pm 29.2 - - - - ESE 35 39 19 21 1006.2 1006.1 -
06/03:00pm 29.3 - - - - ESE 35 41 19 22 1006.4 1006.3 -
06/02:30pm 29.4 - - - - ESE 33 39 18 21 1006.5 1006.4 -
06/02:00pm 29.1 - - - - ESE 33 37 18 20 1006.6 1006.5 -
06/01:30pm 29.2 - - - - ESE 30 33 16 18 1006.9 1006.8 -
06/01:00pm 29.3 - - - - ESE 30 35 16 19 1007.3 1007.2 -
06/12:30pm 29.2 - - - - E 30 33 16 18 1007.5 1007.4 -
06/12:00pm 29.4 - - - - ESE 28 32 15 17 1007.8 1007.7 -
06/11:30am 29.1 - - - - ESE 28 33 15 18 1008.2 1008.1 -
06/11:00am 29.1 - - - - E 28 32 15 17 1008.7 1008.6 -
06/10:30am 29.0 - - - - ESE 22 28 12 15 1009.0 1008.9 -
06/10:00am 29.0 - - - - ESE 28 32 15 17 1008.9 1008.8 -
06/09:30am 29.0 - - - - E 26 30 14 16 1009.1 1009.0 -
06/09:00am 29.2 - - - - E 26 32 14 17 1009.1 1009.0 -
06/08:30am 29.4 - - - - E 26 30 14 16 1009.0 1008.9 -
06/08:00am 28.9 - - - - E 28 32 15 17 1008.8 1008.7 -
06/07:30am 29.1 - - - - ESE 28 30 15 16 1008.7 1008.6 -
06/07:00am 29.1 - - - - ESE 26 28 14 15 1008.4 1008.3 -
06/06:30am 29.1 - - - - E 28 32 15 17 1008.0 1007.9 -
06/06:00am 29.0 - - - - E 30 33 16 18 1007.6 1007.5 -
06/05:30am 29.1 - - - - E 32 35 17 19 1007.2 1007.1 -
06/05:00am 28.9 - - - - E 30 33 16 18 1006.9 1006.8 -
06/04:30am 28.6 - - - - ENE 26 30 14 16 1006.9 1006.8 -
06/04:00am 27.8 - - - - ENE 20 24 11 13 1006.7 1006.6 -
06/03:46am 27.0 - - - - ENE 20 28 11 15 1006.6 1006.5 -
06/03:30am 27.0 - - - - ENE 41 46 22 25 1006.5 1006.4 -
06/03:18am 28.1 - - - - SE 17 43 9 23 1006.6 1006.5 -
06/03:00am 28.3 - - - - ENE 11 13 6 7 1006.6 1006.5 -
06/02:30am 28.6 - - - - ENE 17 19 9 10 1006.5 1006.4 -
06/02:00am 28.8 - - - - NE 19 20 10 11 1006.5 1006.4 -
06/01:30am 28.6 - - - - NE 26 30 14 16 1006.9 1006.8 -
06/01:00am 28.0 - - - - NE 37 44 20 24 1007.1 1007.0 -
06/12:44am 27.8 - - - - ENE 33 48 18 26 1007.2 1007.1 -
06/12:30am 28.6 - - - - ENE 24 30 13 16 1007.5 1007.4 -
06/12:00am 29.1 - - - - ENE 28 32 15 17 1007.6 1007.5 -
 
Date/Time
EST
Temp
°C
App
Temp
°C
Dew
Point
°C
Rel
Hum
%
Delta-T
°C
Wind Press
QNH
hPa
Press
MSL
hPa
Rain since
9am
mm
Dir  Spd
km/h
Gust
km/h
Spd
kts
Gust
kts
05/11:30pm 29.1 - - - - E 24 28 13 15 1007.6 1007.5 -
05/11:12pm 29.0 - - - - E 9 32 5 17 1007.8 1007.7 -
05/11:00pm 28.7 - - - - ENE 2 6 1 3 1007.9 1007.8 -
05/10:30pm 28.2 - - - - NE 20 24 11 13 1008.0 1007.9 -
05/10:00pm 29.3 - - - - ESE 22 28 12 15 1007.9 1007.8 -
05/09:30pm 29.0 - - - - ESE 26 30 14 16 1007.6 1007.5 -
05/09:00pm 29.5 - - - - E 24 26 13 14 1007.3 1007.2 -
05/08:30pm 29.4 - - - - E 22 26 12 14 1007.2 1007.1 -
05/08:00pm 29.1 - - - - E 2 6 1 3 1007.1 1007.0 -
05/07:30pm 28.7 - - - - E 19 22 10 12 1006.9 1006.8 -
05/07:00pm 29.4 - - - - ENE 13 20 7 11 1006.6 1006.5 -
05/06:30pm 29.8 - - - - E 17 20 9 11 1006.3 1006.2 -
05/06:00pm 29.9 - - - - ENE 20 22 11 12 1006.1 1006.0 -
05/05:30pm 29.7 - - - - ENE 20 22 11 12 1005.8 1005.7 -
05/05:00pm 30.3 - - - - ENE 17 20 9 11 1005.7 1005.6 -
05/04:30pm 30.4 - - - - E 17 19 9 10 1005.5 1005.4 -
05/04:00pm 30.1 - - - - E 19 20 10 11 1005.4 1005.3 -
05/03:30pm 30.4 - - - - ENE 17 20 9 11 1005.3 1005.2 -
05/03:00pm 30.2 - - - - ENE 20 22 11 12 1005.3 1005.2 -
05/02:30pm 30.1 - - - - ENE 19 20 10 11 1005.8 1005.7 -
05/02:00pm 29.7 - - - - NE 15 17 8 9 1006.3 1006.2 -
05/01:30pm 29.3 - - - - NE 15 17 8 9 1006.5 1006.4 -
05/01:00pm 29.6 - - - - ENE 19 20 10 11 1006.8 1006.7 -
05/12:30pm 29.8 - - - - ENE 17 20 9 11 1007.0 1006.9 -
05/12:00pm 29.2 - - - - NE 17 19 9 10 1007.2 1007.1 -
05/11:30am 29.1 - - - - NE 15 17 8 9 1007.6 1007.5 -
05/11:00am 29.3 - - - - NE 15 19 8 10 1007.9 1007.8 -
05/10:30am 29.0 - - - - NE 24 28 13 15 1007.9 1007.8 -
05/10:00am 29.2 - - - - NE 26 30 14 16 1008.0 1007.9 -
05/09:30am 29.1 - - - - NE 22 26 12 14 1008.1 1008.0 -
05/09:00am 29.6 - - - - ENE 20 24 11 13 1007.8 1007.7 -
05/08:30am 29.8 - - - - ENE 19 20 10 11 1007.4 1007.3 -
05/08:00am 29.6 - - - - ENE 17 20 9 11 1007.2 1007.1 -
05/07:30am 29.4 - - - - ENE 15 17 8 9 1006.7 1006.6 -
05/07:00am 29.1 - - - - NE 11 13 6 7 1006.2 1006.1 -
05/06:30am 28.9 - - - - ENE 13 15 7 8 1006.1 1006.0 -
05/06:00am 28.8 - - - - NE 17 20 9 11 1005.7 1005.6 -
05/05:30am 29.0 - - - - NE 2 6 1 3 1005.6 1005.5 -
05/05:00am 28.8 - - - - NE 4 6 2 3 1005.2 1005.1 -
05/04:30am 28.8 - - - - NE 4 6 2 3 1004.9 1004.8 -
05/04:00am 28.5 - - - - ENE 2 4 1 2 1004.6 1004.5 -
05/03:30am 28.3 - - - - ENE 2 6 1 3 1004.3 1004.2 -
05/03:00am 28.0 - - - - ENE 2 7 1 4 1004.2 1004.1 -
05/02:30am 28.0 - - - - CALM 0 4 0 2 1004.5 1004.4 -
05/02:00am 28.0 - - - - ENE 2 6 1 3 1004.6 1004.5 -
05/01:30am 28.7 - - - - CALM 0 2 0 1 1005.1 1005.0 -
05/01:00am 28.5 - - - - CALM 0 4 0 2 1005.6 1005.5 -
05/12:30am 28.7 - - - - CALM 0 4 0 2 1006.0 1005.9 -
05/12:00am 28.5 - - - - CALM 0 2 0 1 1006.1 1006.0 -
 
Date/Time
EST
Temp
°C
App
Temp
°C
Dew
Point
°C
Rel
Hum
%
Delta-T
°C
Wind Press
QNH
hPa
Press
MSL
hPa
Rain since
9am
mm
Dir  Spd
km/h
Gust
km/h
Spd
kts
Gust
kts
04/11:30pm 28.4 - - - - N 2 6 1 3 1006.5 1006.4 -
04/11:00pm 29.0 - - - - CALM 0 4 0 2 1006.6 1006.5 -
04/10:30pm 28.9 - - - - CALM 0 6 0 3 1006.6 1006.5 -
04/10:00pm 28.9 - - - - CALM 0 4 0 2 1006.4 1006.3 -
04/09:30pm 29.0 - - - - CALM 0 4 0 2 1006.2 1006.1 -
04/09:00pm 28.9 - - - - CALM 0 6 0 3 1005.9 1005.8 -
04/08:30pm 28.9 - - - - CALM 0 4 0 2 1005.6 1005.5 -
04/08:00pm 29.2 - - - - CALM 0 4 0 2 1005.3 1005.2 -
04/07:30pm 29.1 - - - - CALM 0 4 0 2 1005.0 1004.9 -
04/07:00pm 29.2 - - - - NNW 13 15 7 8 1004.6 1004.5 -
04/06:30pm 29.1 - - - - NNW 9 11 5 6 1004.3 1004.2 -
04/06:00pm 28.9 - - - - NNW 20 28 11 15 1003.8 1003.7 -
04/05:30pm 29.8 - - - - NNW 11 13 6 7 1003.4 1003.3 -
04/05:00pm 29.7 - - - - NNW 15 17 8 9 1003.0 1002.9 -
04/04:30pm 29.9 - - - - NNW 17 19 9 10 1002.6 1002.5 -
04/04:00pm 29.7 - - - - NNW 17 19 9 10 1002.3 1002.2 -
04/03:30pm 29.4 - - - - NNW 19 20 10 11 1002.1 1002.0 -
04/03:00pm 29.5 - - - - NNW 20 22 11 12 1002.2 1002.1 -
04/02:30pm 29.5 - - - - NNW 20 26 11 14 1002.3 1002.2 -
04/02:00pm 29.4 - - - - NNW 24 26 13 14 1002.6 1002.5 -
04/01:30pm 29.4 - - - - NNW 20 24 11 13 1002.8 1002.7 -
04/01:00pm 29.3 - - - - N 22 24 12 13 1003.0 1002.9 -
04/12:30pm 29.3 - - - - NNW 22 24 12 13 1003.3 1003.2 -
04/12:00pm 29.4 - - - - N 20 24 11 13 1003.4 1003.3 -
04/11:30am 29.3 - - - - NNW 22 26 12 14 1003.8 1003.7 -
04/11:00am 29.3 - - - - NNW 22 24 12 13 1004.2 1004.1 -
04/10:30am 29.4 - - - - NNW 20 22 11 12 1004.3 1004.2 -
04/10:00am 29.3 - - - - N 19 20 10 11 1004.5 1004.4 -
04/09:30am 29.4 - - - - N 19 20 10 11 1004.4 1004.3 -
04/09:00am 29.2 - - - - NNW 19 20 10 11 1004.3 1004.2 -
04/08:30am 29.2 - - - - N 19 20 10 11 1004.4 1004.3 -
04/08:00am 29.1 - - - - N 20 26 11 14 1004.1 1004.0 -
04/07:30am 29.1 - - - - NNW 19 22 10 12 1004.1 1004.0 -
04/07:00am 29.0 - - - - NNW 20 24 11 13 1004.0 1003.9 -
04/06:30am 28.8 - - - - N 20 24 11 13 1003.6 1003.5 -
04/06:00am 29.0 - - - - N 26 28 14 15 1002.9 1002.8 -
04/05:30am 29.0 - - - - NNW 20 26 11 14 1002.6 1002.5 -
04/05:00am 28.9 - - - - NNW 22 26 12 14 1001.9 1001.8 -
04/04:30am 28.9 - - - - NNW 28 32 15 17 1001.5 1001.4 -
04/04:00am 28.6 - - - - NNW 26 35 14 19 1001.5 1001.4 -
04/03:30am 28.8 - - - - NNW 30 33 16 18 1001.5 1001.4 -
04/03:00am 28.9 - - - - NNW 32 35 17 19 1001.4 1001.3 -
04/02:30am 28.9 - - - - NNW 35 39 19 21 1001.6 1001.5 -
04/02:00am 28.9 - - - - NNW 33 37 18 20 1001.7 1001.6 -
04/01:30am 29.0 - - - - NNW 39 44 21 24 1001.9 1001.8 -
04/01:00am 29.0 - - - - NNW 37 43 20 23 1002.0 1001.9 -
04/12:30am 28.9 - - - - NNW 39 44 21 24 1002.0 1001.9 -
04/12:00am 29.0 - - - - NNW 39 43 21 23 1002.8 1002.7 -

Other formats

Comma delimited format used in spreadsheet applications
http://www.bom.gov.au/fwo/IDQ60801/IDQ60801.94290.axf

JavaScript Object Notation format (JSON) in row-major order
http://www.bom.gov.au/fwo/IDQ60801/IDQ60801.94290.json

Data quality

Most of these data are generated automatically and are frequently updated. Quality checks on data are not normally performed. It is possible for incorrect values to appear. Refer to information at About Latest Weather Observations and please check the disclaimer before using these data.